Time;durP1;ratioP1;P1;durP2;ratioP2;P2;SDS_P1;SDS_P2;PMS_P1;PMS_P2;Temp;Humidity;BMP_temperature;BMP_pressure;BME280_temperature;BME280_humidity;BME280_pressure;Samples;Min_cycle;Max_cycle;Signal;HPM_P1;HPM_P2
2023/09/15 00:01:49;;;;;;;2.10;1.08;;;21.90;69.20;;;;;;5095302;28;20111;-68
2023/09/15 00:04:15;;;;;;;2.25;1.20;;;21.90;69.20;;;;;;5093718;28;20127;-68
2023/09/15 00:06:40;;;;;;;2.88;1.00;;;21.90;69.20;;;;;;5095614;28;20121;-68
2023/09/15 00:09:14;;;;;;;2.83;0.90;;;21.90;69.20;;;;;;5095924;28;20067;-69
2023/09/15 00:11:42;;;;;;;1.70;0.98;;;21.90;69.20;;;;;;5094806;28;20043;-67
2023/09/15 00:14:12;;;;;;;2.40;0.93;;;21.90;69.20;;;;;;5095104;28;20036;-68
2023/09/15 00:16:42;;;;;;;1.73;0.75;;;21.80;69.10;;;;;;5094740;28;20036;-68
2023/09/15 00:19:13;;;;;;;2.20;0.90;;;21.80;69.10;;;;;;5094411;28;20068;-67
2023/09/15 00:21:39;;;;;;;2.72;0.90;;;21.80;69.10;;;;;;5095738;28;20040;-68
2023/09/15 00:24:07;;;;;;;2.85;0.90;;;21.80;69.10;;;;;;5094508;28;20047;-68
2023/09/15 00:26:33;;;;;;;2.30;1.00;;;21.80;69.10;;;;;;5095652;28;20094;-68
2023/09/15 00:29:00;;;;;;;3.45;0.90;;;21.80;69.10;;;;;;5095348;28;20048;-68
2023/09/15 00:31:26;;;;;;;2.63;1.10;;;21.80;69.10;;;;;;5094765;28;20073;-68
2023/09/15 00:33:51;;;;;;;2.53;0.90;;;21.80;69.10;;;;;;5093163;28;20123;-67
2023/09/15 00:36:17;;;;;;;3.38;1.02;;;21.80;69.10;;;;;;5094651;28;20127;-68
2023/09/15 00:38:42;;;;;;;2.10;1.00;;;21.80;69.10;;;;;;5091116;28;20059;-68
2023/09/15 00:41:08;;;;;;;2.20;0.77;;;21.80;69.10;;;;;;5094435;28;20083;-67
2023/09/15 00:43:34;;;;;;;3.45;1.10;;;21.80;69.10;;;;;;5093664;28;20447;-68
2023/09/15 00:45:59;;;;;;;2.45;1.00;;;21.80;69.10;;;;;;5109359;28;20085;-68
2023/09/15 00:48:25;;;;;;;2.13;0.80;;;21.80;69.10;;;;;;5094219;28;20027;-68
2023/09/15 00:50:51;;;;;;;1.60;0.70;;;21.80;69.10;;;;;;5094637;28;20400;-68
2023/09/15 00:53:19;;;;;;;2.83;0.93;;;21.80;69.10;;;;;;5093307;28;20063;-68
2023/09/15 00:55:45;;;;;;;;;;;21.80;69.10;;;;;;5094079;28;20048;-68
2023/09/15 00:58:11;;;;;;;2.20;1.00;;;21.80;69.10;;;;;;5095106;28;20283;-68
2023/09/15 01:00:43;;;;;;;2.13;0.90;;;21.70;69.10;;;;;;5093636;28;20096;-68
2023/09/15 01:03:13;;;;;;;1.50;0.90;;;21.70;69.10;;;;;;5093789;28;20078;-68
2023/09/15 01:05:40;;;;;;;1.75;0.90;;;21.70;69.00;;;;;;5092015;28;20494;-68
2023/09/15 01:08:07;;;;;;;2.10;0.90;;;21.70;69.10;;;;;;5093365;28;20044;-68
2023/09/15 01:10:33;;;;;;;2.55;0.88;;;21.70;69.00;;;;;;5094724;28;20086;-68
2023/09/15 01:12:58;;;;;;;4.20;0.90;;;21.70;69.00;;;;;;5092469;28;20055;-68
2023/09/15 01:15:46;;;;;;;1.83;0.90;;;21.70;69.00;;;;;;5092907;28;20043;-69
2023/09/15 01:18:59;;;;;;;2.35;0.98;;;21.70;69.00;;;;;;5093658;28;20078;-69
2023/09/15 01:21:52;;;;;;;1.85;0.90;;;21.70;69.00;;;;;;5088055;28;20079;-69
2023/09/15 01:24:54;;;;;;;2.47;1.02;;;21.70;69.00;;;;;;5048403;28;20044;-68
2023/09/15 01:27:23;;;;;;;1.33;0.60;;;21.70;69.00;;;;;;5093751;28;20048;-69
2023/09/15 01:29:56;;;;;;;1.95;0.77;;;21.60;69.00;;;;;;5093025;28;20123;-68
2023/09/15 01:32:22;;;;;;;2.35;1.00;;;21.60;68.90;;;;;;5076045;28;20161;-68
2023/09/15 01:34:49;;;;;;;2.15;0.80;;;21.60;69.00;;;;;;5093118;28;20506;-68
2023/09/15 01:37:15;;;;;;;2.05;0.70;;;21.60;68.90;;;;;;5094014;28;20055;-68
2023/09/15 01:39:40;;;;;;;2.28;1.02;;;21.60;68.90;;;;;;5092147;28;20055;-68
2023/09/15 01:42:06;;;;;;;1.20;0.80;;;21.60;69.00;;;;;;5093185;28;20054;-68
2023/09/15 01:44:31;;;;;;;2.83;0.98;;;21.60;69.00;;;;;;5092995;28;20388;-68
2023/09/15 01:46:57;;;;;;;1.70;0.88;;;21.60;68.90;;;;;;5093456;28;20048;-69
2023/09/15 01:49:23;;;;;;;2.47;0.93;;;21.60;68.90;;;;;;5093002;28;20055;-68
2023/09/15 01:51:48;;;;;;;1.27;0.80;;;21.60;68.90;;;;;;5092292;28;20040;-68
2023/09/15 01:54:14;;;;;;;2.88;0.80;;;21.60;68.90;;;;;;5091884;28;20075;-67
2023/09/15 01:56:40;;;;;;;1.58;0.70;;;21.60;68.90;;;;;;5074579;28;20400;-68
2023/09/15 01:59:06;;;;;;;3.03;0.80;;;21.60;68.90;;;;;;5092545;28;20488;-68
2023/09/15 02:01:32;;;;;;;1.23;0.70;;;21.60;68.90;;;;;;5092230;28;20113;-68
2023/09/15 02:03:57;;;;;;;1.50;0.70;;;21.60;68.90;;;;;;5090022;28;20123;-68
2023/09/15 02:06:23;;;;;;;2.45;0.98;;;21.60;68.90;;;;;;5093292;28;20032;-68
2023/09/15 02:08:49;;;;;;;2.50;0.95;;;21.60;68.90;;;;;;5093169;28;20093;-68
2023/09/15 02:11:14;;;;;;;2.85;0.90;;;21.60;68.90;;;;;;5092952;28;20562;-68
2023/09/15 02:13:43;;;;;;;1.88;0.85;;;21.60;68.90;;;;;;5091807;28;20044;-67
2023/09/15 02:16:08;;;;;;;1.98;0.90;;;21.60;68.90;;;;;;5092017;28;20047;-68
2023/09/15 02:18:34;;;;;;;2.20;1.00;;;21.60;69.50;;;;;;5091992;28;20036;-68
2023/09/15 02:21:00;;;;;;;1.65;0.82;;;21.50;68.90;;;;;;5092562;28;20052;-68
2023/09/15 02:23:26;;;;;;;2.42;0.90;;;21.50;68.80;;;;;;5091487;28;20040;-69
2023/09/15 02:25:51;;;;;;;1.13;0.60;;;21.50;68.80;;;;;;5090693;28;20385;-68
2023/09/15 02:28:20;;;;;;;1.38;0.60;;;21.50;68.80;;;;;;5091898;28;20055;-68
2023/09/15 02:30:46;;;;;;;2.03;0.70;;;21.50;68.80;;;;;;5091010;28;20488;-68
2023/09/15 02:33:12;;;;;;;2.15;0.73;;;21.50;68.80;;;;;;5093353;28;20488;-68
2023/09/15 02:35:38;;;;;;;1.77;0.70;;;21.50;68.80;;;;;;5091550;28;20044;-68
2023/09/15 02:38:03;;;;;;;2.83;0.80;;;21.50;68.80;;;;;;5092016;28;20490;-68
2023/09/15 02:40:29;;;;;;;2.08;0.80;;;21.50;68.80;;;;;;5091702;28;20051;-68
2023/09/15 02:42:55;;;;;;;1.13;0.63;;;21.50;68.80;;;;;;5092686;28;20036;-68
2023/09/15 02:45:20;;;;;;;1.13;0.65;;;21.50;68.80;;;;;;5091137;28;20044;-68
2023/09/15 02:47:46;;;;;;;1.27;0.60;;;21.50;68.80;;;;;;5092602;28;20036;-68
2023/09/15 02:50:12;;;;;;;2.00;0.80;;;21.50;68.80;;;;;;5092751;28;20127;-68
2023/09/15 02:52:37;;;;;;;2.08;0.80;;;21.50;68.80;;;;;;5090847;28;20055;-68
2023/09/15 02:55:04;;;;;;;3.28;1.00;;;21.50;68.80;;;;;;5091501;28;20478;-68
2023/09/15 02:57:30;;;;;;;1.63;0.80;;;21.50;68.80;;;;;;5091876;28;20090;-68
2023/09/15 02:59:56;;;;;;;1.73;0.70;;;21.50;68.80;;;;;;5090681;28;20052;-68
2023/09/15 03:02:21;;;;;;;2.00;0.68;;;21.50;68.80;;;;;;5092875;28;20471;-68
2023/09/15 03:04:47;;;;;;;2.50;0.70;;;21.40;68.70;;;;;;5108205;28;20126;-68
2023/09/15 03:07:13;;;;;;;2.60;0.90;;;21.50;68.80;;;;;;5090292;28;20032;-68
2023/09/15 03:09:39;;;;;;;2.22;0.77;;;21.40;68.80;;;;;;5092473;28;20067;-68
2023/09/15 03:12:04;;;;;;;2.35;0.85;;;21.40;68.70;;;;;;5092948;28;20428;-67
2023/09/15 03:14:30;;;;;;;1.02;0.57;;;21.40;68.70;;;;;;5091658;28;20044;-68
2023/09/15 03:16:56;;;;;;;1.92;0.80;;;21.40;68.70;;;;;;5093064;28;20165;-68
2023/09/15 03:19:22;;;;;;;2.28;0.80;;;21.40;68.70;;;;;;5096433;28;20040;-67
2023/09/15 03:21:47;;;;;;;2.08;0.70;;;21.40;68.70;;;;;;5094549;28;20085;-68
2023/09/15 03:24:13;;;;;;;2.28;0.80;;;21.40;68.80;;;;;;5096767;28;20039;-67
2023/09/15 03:26:40;;;;;;;1.85;0.80;;;21.40;68.70;;;;;;5094593;28;20032;-68
2023/09/15 03:29:06;;;;;;;1.60;0.73;;;21.40;68.70;;;;;;5095394;28;20443;-68
2023/09/15 03:31:31;;;;;;;2.38;0.65;;;21.40;68.70;;;;;;5095160;28;20128;-68
2023/09/15 03:33:57;;;;;;;2.20;0.82;;;21.40;68.70;;;;;;5093521;28;20048;-68
2023/09/15 03:36:22;;;;;;;2.60;0.85;;;21.40;68.70;;;;;;5095206;28;20040;-68
2023/09/15 03:38:48;;;;;;;2.33;0.90;;;21.40;68.70;;;;;;5094710;28;20411;-68
2023/09/15 03:41:14;;;;;;;1.98;0.80;;;21.40;68.70;;;;;;5094413;28;20514;-68
2023/09/15 03:43:40;;;;;;;1.50;0.63;;;21.40;68.70;;;;;;5095075;28;20044;-68
2023/09/15 03:46:05;;;;;;;2.15;0.70;;;21.40;68.70;;;;;;5096240;28;20427;-68
2023/09/15 03:48:31;;;;;;;1.02;0.65;;;21.40;68.70;;;;;;5094219;28;20044;-68
2023/09/15 03:50:57;;;;;;;2.63;0.98;;;21.30;68.70;;;;;;5094821;28;20050;-68
2023/09/15 03:53:22;;;;;;;1.92;0.80;;;21.30;68.70;;;;;;5094522;28;20431;-68
2023/09/15 03:55:49;;;;;;;1.10;0.70;;;21.40;68.70;;;;;;5093570;28;20130;-68
2023/09/15 03:58:15;;;;;;;1.30;0.50;;;21.30;68.70;;;;;;5094704;28;20044;-68
2023/09/15 04:00:40;;;;;;;2.15;0.80;;;21.30;68.70;;;;;;5094415;28;20097;-67
2023/09/15 04:03:06;;;;;;;1.13;0.57;;;21.30;68.70;;;;;;5093578;28;20044;-68
2023/09/15 04:05:32;;;;;;;1.92;0.80;;;21.30;68.70;;;;;;5095412;28;20040;-68
2023/09/15 04:07:57;;;;;;;1.33;0.60;;;21.30;68.60;;;;;;5093992;28;20048;-68
2023/09/15 04:10:23;;;;;;;2.65;0.82;;;21.30;68.70;;;;;;5095061;28;20105;-67
2023/09/15 04:12:49;;;;;;;3.10;0.70;;;21.30;68.70;;;;;;5093109;28;20051;-68
2023/09/15 04:15:15;;;;;;;1.15;0.60;;;21.30;68.60;;;;;;5095793;28;20157;-67
2023/09/15 04:17:43;;;;;;;1.83;0.70;;;21.30;68.70;;;;;;5093270;28;20036;-68
2023/09/15 04:20:10;;;;;;;2.30;0.75;;;21.30;68.60;;;;;;5094484;28;20044;-68
2023/09/15 04:22:39;;;;;;;1.38;0.70;;;21.30;68.70;;;;;;5093154;28;20086;-68
2023/09/15 04:25:05;;;;;;;1.20;0.57;;;21.30;68.70;;;;;;5095581;28;20537;-68
2023/09/15 04:27:32;;;;;;;1.85;0.70;;;21.30;68.70;;;;;;5092737;28;20036;-68
2023/09/15 04:29:57;;;;;;;1.38;0.65;;;21.30;68.60;;;;;;5094627;28;20044;-68
2023/09/15 04:32:23;;;;;;;1.98;0.77;;;21.30;68.70;;;;;;5094154;28;20403;-68
2023/09/15 04:34:52;;;;;;;1.55;0.70;;;21.30;68.70;;;;;;5094573;28;20059;-68
2023/09/15 04:37:21;;;;;;;1.80;0.70;;;21.30;68.70;;;;;;5094266;28;20056;-67
2023/09/15 04:39:49;;;;;;;1.40;0.70;;;21.20;68.60;;;;;;5093661;28;20419;-68
2023/09/15 04:42:15;;;;;;;2.10;0.80;;;21.20;68.60;;;;;;5095212;28;20048;-68
2023/09/15 04:44:40;;;;;;;1.40;0.70;;;21.20;68.60;;;;;;5093111;28;20062;-67
2023/09/15 04:47:06;;;;;;;2.78;0.70;;;21.20;68.60;;;;;;5093603;28;20052;-67
2023/09/15 04:49:31;;;;;;;2.05;0.80;;;21.20;68.60;;;;;;5092130;28;20040;-68
2023/09/15 04:51:57;;;;;;;1.67;0.70;;;21.20;68.60;;;;;;5071987;28;20048;-68
2023/09/15 04:54:23;;;;;;;1.63;0.68;;;21.20;68.60;;;;;;5074351;28;20129;-67
2023/09/15 04:56:48;;;;;;;1.85;0.70;;;21.20;68.60;;;;;;5073111;28;20381;-68
2023/09/15 04:59:18;;;;;;;2.95;0.65;;;21.20;68.60;;;;;;5074209;28;20144;-68
2023/09/15 05:01:44;;;;;;;1.58;0.60;;;21.20;68.60;;;;;;5072916;28;20119;-67
2023/09/15 05:04:10;;;;;;;1.85;0.70;;;21.20;68.60;;;;;;5073455;28;20440;-68
2023/09/15 05:06:36;;;;;;;2.17;0.70;;;21.20;68.60;;;;;;5072275;28;20040;-67
2023/09/15 05:09:05;;;;;;;1.63;0.70;;;21.20;68.70;;;;;;5074557;28;20068;-67
2023/09/15 05:11:31;;;;;;;1.75;0.80;;;21.20;68.70;;;;;;5073234;28;20045;-67
2023/09/15 05:13:56;;;;;;;1.55;0.70;;;21.20;68.60;;;;;;5072125;28;20546;-67
2023/09/15 05:16:23;;;;;;;1.58;0.60;;;21.20;68.60;;;;;;5072901;28;20041;-67
2023/09/15 05:18:49;;;;;;;2.55;0.75;;;21.20;68.60;;;;;;5073186;28;20044;-68
2023/09/15 05:21:14;;;;;;;1.15;0.68;;;21.20;68.70;;;;;;5072783;28;20036;-68
2023/09/15 05:23:40;;;;;;;1.83;0.70;;;21.20;68.60;;;;;;5073795;28;20045;-67
2023/09/15 05:26:07;;;;;;;1.30;0.85;;;21.20;68.70;;;;;;5072183;28;20052;-68
2023/09/15 05:28:33;;;;;;;1.67;0.70;;;21.20;68.60;;;;;;5074356;28;20063;-68
2023/09/15 05:30:59;;;;;;;2.03;0.70;;;21.20;68.60;;;;;;5073804;28;20041;-68
2023/09/15 05:33:25;;;;;;;2.42;0.70;;;21.10;68.60;;;;;;5071716;28;20093;-68
2023/09/15 05:35:57;;;;;;;1.42;0.57;;;21.10;68.60;;;;;;5073604;28;20153;-68
2023/09/15 05:38:23;;;;;;;1.08;0.70;;;21.10;68.60;;;;;;5071959;28;20386;-68
2023/09/15 05:40:49;;;;;;;1.10;0.60;;;21.10;68.60;;;;;;5071331;28;20070;-68
2023/09/15 05:43:16;;;;;;;2.10;0.90;;;21.10;68.60;;;;;;5072378;28;20182;-68
2023/09/15 05:45:42;;;;;;;1.45;0.70;;;21.10;68.60;;;;;;5072402;28;20044;-68
2023/09/15 05:48:12;;;;;;;1.35;0.80;;;21.10;68.60;;;;;;5054935;28;20512;-68
2023/09/15 05:50:38;;;;;;;1.38;0.73;;;21.10;68.60;;;;;;5072025;28;20567;-68
2023/09/15 05:53:03;;;;;;;2.00;0.60;;;21.10;68.60;;;;;;5071883;28;20041;-68
2023/09/15 05:55:29;;;;;;;1.50;0.73;;;21.10;68.60;;;;;;5071481;28;20492;-68
2023/09/15 05:57:55;;;;;;;1.10;0.70;;;21.00;68.60;;;;;;5071894;28;20036;-68
2023/09/15 06:00:22;;;;;;;1.58;0.73;;;21.10;68.60;;;;;;5072312;28;20511;-68
2023/09/15 06:02:47;;;;;;;2.13;0.90;;;21.10;68.60;;;;;;5071276;28;20060;-68
2023/09/15 06:05:13;;;;;;;1.85;0.70;;;21.10;68.60;;;;;;5071995;28;20051;-68
2023/09/15 06:07:39;;;;;;;1.40;0.80;;;21.10;68.60;;;;;;5071770;28;20051;-68
2023/09/15 06:10:06;;;;;;;1.95;0.90;;;21.10;68.60;;;;;;5072715;28;20049;-68
2023/09/15 06:12:32;;;;;;;1.42;0.65;;;21.10;68.60;;;;;;5073240;28;20090;-68
2023/09/15 06:14:58;;;;;;;2.45;0.80;;;21.10;68.60;;;;;;5073130;28;20055;-68
2023/09/15 06:17:24;;;;;;;1.45;0.73;;;21.10;68.60;;;;;;5071842;28;20434;-68
2023/09/15 06:19:50;;;;;;;1.58;0.70;;;21.10;68.60;;;;;;5071469;28;20488;-68
2023/09/15 06:22:15;;;;;;;1.83;0.90;;;21.00;68.50;;;;;;5070244;28;20068;-65
2023/09/15 06:24:41;;;;;;;2.25;1.00;;;21.00;68.60;;;;;;5071374;28;20036;-65
2023/09/15 06:27:06;;;;;;;3.17;0.80;;;21.10;68.60;;;;;;5071658;28;20446;-66
2023/09/15 06:29:32;;;;;;;2.28;0.90;;;21.10;69.20;;;;;;5072462;28;20044;-66
2023/09/15 06:31:57;;;;;;;4.75;1.10;;;21.10;68.50;;;;;;5081566;28;20040;-62
2023/09/15 06:34:23;;;;;;;3.25;0.82;;;21.10;68.40;;;;;;5092605;28;20048;-63
2023/09/15 06:36:50;;;;;;;2.22;0.80;;;21.10;68.50;;;;;;5083998;28;20040;-68
2023/09/15 06:39:16;;;;;;;1.70;0.90;;;21.10;68.50;;;;;;5074933;28;20109;-69
2023/09/15 06:41:41;;;;;;;6.20;1.00;;;21.10;68.60;;;;;;5091496;28;20044;-65
2023/09/15 06:44:09;;;;;;;3.38;1.15;;;21.10;68.60;;;;;;5091671;28;20576;-64
2023/09/15 06:46:35;;;;;;;5.40;1.23;;;21.10;68.60;;;;;;5092269;28;20064;-65
2023/09/15 06:49:00;;;;;;;4.00;1.00;;;21.10;68.70;;;;;;5091478;28;20140;-66
2023/09/15 06:51:27;;;;;;;6.38;1.48;;;21.10;68.70;;;;;;5091544;28;20032;-65
2023/09/15 06:53:53;;;;;;;7.70;1.02;;;21.10;68.80;;;;;;5092559;28;20044;-66
2023/09/15 06:56:18;;;;;;;3.35;1.00;;;21.10;68.80;;;;;;5092758;28;20044;-66
2023/09/15 06:58:44;;;;;;;6.03;1.05;;;21.20;68.90;;;;;;5090831;28;20044;-66
2023/09/15 07:01:09;;;;;;;3.45;1.00;;;21.20;68.90;;;;;;5092464;28;20050;-67
2023/09/15 07:03:35;;;;;;;3.33;0.98;;;21.20;68.90;;;;;;5092481;28;20089;-67
2023/09/15 07:06:01;;;;;;;2.95;1.27;;;21.20;69.00;;;;;;5091991;28;20472;-66
2023/09/15 07:08:27;;;;;;;2.85;1.10;;;21.20;69.00;;;;;;5091656;28;20087;-67
2023/09/15 07:10:53;;;;;;;2.33;0.90;;;21.20;69.10;;;;;;5092677;28;20902;-67
2023/09/15 07:13:18;;;;;;;4.00;1.10;;;21.20;69.10;;;;;;5091942;28;20036;-64
2023/09/15 07:15:47;;;;;;;4.63;1.00;;;21.20;69.10;;;;;;5092066;28;20090;-65
2023/09/15 07:18:13;;;;;;;6.38;1.50;;;21.30;69.20;;;;;;5092632;28;20068;-66
2023/09/15 07:20:39;;;;;;;5.13;1.10;;;21.30;69.20;;;;;;5091629;28;20086;-67
2023/09/15 07:23:04;;;;;;;3.30;1.20;;;21.30;69.20;;;;;;5091439;28;20047;-66
2023/09/15 07:25:30;;;;;;;2.25;1.15;;;21.30;69.20;;;;;;5073406;28;20044;-66
2023/09/15 07:27:55;;;;;;;4.40;1.00;;;21.30;69.20;;;;;;5092140;28;20048;-67
2023/09/15 07:30:21;;;;;;;3.88;1.10;;;21.30;69.20;;;;;;5091293;28;20051;-65
2023/09/15 07:32:47;;;;;;;2.53;1.00;;;21.30;69.20;;;;;;5091448;28;20040;-65
2023/09/15 07:35:14;;;;;;;4.10;1.10;;;21.30;69.10;;;;;;5092508;28;20056;-64
2023/09/15 07:37:40;;;;;;;4.32;1.10;;;21.30;69.00;;;;;;5090640;28;20399;-61
2023/09/15 07:40:07;;;;;;;5.57;1.15;;;21.40;69.00;;;;;;5090107;28;20056;-65
2023/09/15 07:42:33;;;;;;;4.25;1.20;;;21.40;69.00;;;;;;5090109;28;20052;-65
2023/09/15 07:44:59;;;;;;;3.75;1.10;;;21.40;69.00;;;;;;5091075;28;20113;-64
2023/09/15 07:47:25;;;;;;;13.90;1.52;;;21.40;68.90;;;;;;5089409;28;20074;-65
2023/09/15 07:49:53;;;;;;;4.68;1.00;;;21.40;69.00;;;;;;5089884;28;20078;-67
2023/09/15 07:52:22;;;;;;;8.55;1.30;;;21.40;69.00;;;;;;5091282;28;20083;-68
2023/09/15 07:54:47;;;;;;;5.45;1.30;;;21.40;69.10;;;;;;5091072;28;20055;-67
2023/09/15 07:57:14;;;;;;;6.63;1.55;;;21.40;69.20;;;;;;5091247;28;20051;-67
2023/09/15 07:59:39;;;;;;;6.35;1.10;;;21.50;69.30;;;;;;5091729;28;20445;-68
2023/09/15 08:02:05;;;;;;;4.10;1.27;;;21.50;69.40;;;;;;5092453;28;20040;-66
2023/09/15 08:04:30;;;;;;;3.72;1.25;;;21.50;69.40;;;;;;5095835;28;20036;-66
2023/09/15 08:06:56;;;;;;;4.55;1.00;;;21.50;69.40;;;;;;5094439;28;20044;-66
2023/09/15 08:09:22;;;;;;;5.35;1.45;;;21.50;69.50;;;;;;5093873;28;20145;-66
2023/09/15 08:11:47;;;;;;;2.58;1.10;;;21.60;69.50;;;;;;5093918;28;20474;-66
2023/09/15 08:14:13;;;;;;;2.17;1.20;;;21.50;69.50;;;;;;5094475;28;20036;-66
2023/09/15 08:16:38;;;;;;;3.33;1.27;;;21.60;69.50;;;;;;5093735;28;20051;-67
2023/09/15 08:19:04;;;;;;;2.13;0.90;;;21.60;69.50;;;;;;5094369;28;20404;-66
2023/09/15 08:21:29;;;;;;;3.50;1.20;;;21.60;69.50;;;;;;5087407;28;20090;-65
2023/09/15 08:23:56;;;;;;;2.97;1.20;;;21.70;69.60;;;;;;5090210;28;20104;-66
2023/09/15 08:26:21;;;;;;;2.85;1.20;;;21.70;69.60;;;;;;5091096;28;20035;-66
2023/09/15 08:28:47;;;;;;;2.97;1.00;;;21.70;69.60;;;;;;5093238;28;20036;-67
2023/09/15 08:31:13;;;;;;;2.92;1.00;;;21.80;69.60;;;;;;5093303;28;20479;-68
2023/09/15 08:33:38;;;;;;;3.08;0.98;;;21.70;69.60;;;;;;5094020;28;20044;-67
2023/09/15 08:36:04;;;;;;;5.70;1.30;;;21.80;69.60;;;;;;5094593;28;20525;-67
2023/09/15 08:38:31;;;;;;;3.63;1.10;;;21.80;69.60;;;;;;5093621;28;20047;-66
2023/09/15 08:41:12;;;;;;;4.93;1.00;;;21.80;69.60;;;;;;5091305;28;20048;-66
2023/09/15 08:43:38;;;;;;;5.05;1.10;;;21.90;69.60;;;;;;5092095;28;20056;-65
2023/09/15 08:46:05;;;;;;;4.43;1.25;;;21.80;69.40;;;;;;5094832;28;20065;-65
2023/09/15 08:48:32;;;;;;;2.77;0.93;;;21.90;69.40;;;;;;5086211;28;20036;-66
2023/09/15 08:50:58;;;;;;;5.15;1.17;;;21.90;69.30;;;;;;5074992;28;20048;-65
2023/09/15 08:53:24;;;;;;;9.32;1.75;;;21.90;69.20;;;;;;5094821;28;20101;-65
2023/09/15 08:55:49;;;;;;;13.02;2.30;;;21.90;69.10;;;;;;5076174;28;20089;-64
2023/09/15 08:58:15;;;;;;;15.68;1.83;;;21.90;69.00;;;;;;5075757;28;20036;-65
2023/09/15 09:00:42;;;;;;;13.45;2.33;;;21.90;68.90;;;;;;5093067;28;20088;-65
2023/09/15 09:03:07;;;;;;;13.13;1.92;;;21.90;68.90;;;;;;5092954;28;20115;-65
2023/09/15 09:05:33;;;;;;;20.38;2.65;;;22.00;68.90;;;;;;5092136;28;20126;-65
2023/09/15 09:07:59;;;;;;;14.50;2.05;;;22.00;68.90;;;;;;5092939;28;20032;-65
2023/09/15 09:10:25;;;;;;;11.60;2.33;;;22.00;68.90;;;;;;5076128;28;20506;-66
2023/09/15 09:12:51;;;;;;;15.07;2.97;;;22.00;68.80;;;;;;5091746;28;20040;-65
2023/09/15 09:15:17;;;;;;;16.65;3.35;;;22.00;68.90;;;;;;5088534;28;20101;-63
2023/09/15 09:17:43;;;;;;;17.27;3.97;;;22.00;68.80;;;;;;5093570;28;20036;-65
2023/09/15 09:20:26;;;;;;;21.33;3.65;;;22.00;68.80;;;;;;5093631;28;20055;-63
2023/09/15 09:22:52;;;;;;;25.48;4.35;;;22.00;69.00;;;;;;5092155;28;20426;-63
2023/09/15 09:25:25;;;;;;;15.98;4.43;;;22.10;69.80;;;;;;5090233;28;20039;-64
2023/09/15 09:27:51;;;;;;;18.73;4.72;;;22.10;69.70;;;;;;5092713;28;20054;-62
2023/09/15 09:30:17;;;;;;;20.77;4.05;;;22.00;69.60;;;;;;5092894;28;20127;-62
2023/09/15 09:32:42;;;;;;;21.88;4.10;;;22.10;69.70;;;;;;5091940;28;20040;-63
2023/09/15 09:35:09;;;;;;;17.55;3.92;;;22.10;69.70;;;;;;5093982;28;20128;-63
2023/09/15 09:37:34;;;;;;;17.17;4.18;;;22.10;69.80;;;;;;5093763;28;20067;-63
2023/09/15 09:40:00;;;;;;;19.02;4.22;;;22.10;69.80;;;;;;5062937;28;20040;-64
2023/09/15 09:42:26;;;;;;;25.02;4.55;;;22.20;69.90;;;;;;5074185;28;20064;-63
2023/09/15 09:44:52;;;;;;;20.25;4.50;;;22.20;69.90;;;;;;5072433;28;20048;-66
2023/09/15 09:47:18;;;;;;;17.60;3.95;;;22.20;69.70;;;;;;5072482;28;20557;-66
2023/09/15 09:49:44;;;;;;;13.52;3.35;;;22.20;70.20;;;;;;5072122;28;20040;-66
2023/09/15 09:52:13;;;;;;;14.45;3.40;;;22.20;69.50;;;;;;5073547;28;20078;-67
2023/09/15 09:54:38;;;;;;;16.65;3.70;;;22.20;69.40;;;;;;5072497;28;20123;-66
2023/09/15 09:57:04;;;;;;;16.73;3.40;;;22.20;69.40;;;;;;5073566;28;20588;-67
2023/09/15 09:59:30;;;;;;;14.10;3.40;;;22.20;69.40;;;;;;5073364;28;20047;-57
2023/09/15 10:01:55;;;;;;;13.40;3.03;;;22.20;69.40;;;;;;5070826;28;20075;-57
2023/09/15 10:04:22;;;;;;;12.80;3.40;;;22.20;69.40;;;;;;5073631;28;20384;-58
2023/09/15 10:06:47;;;;;;;13.10;3.05;;;22.20;69.20;;;;;;5071690;28;20098;-58
2023/09/15 10:09:14;;;;;;;12.50;2.55;;;22.20;69.00;;;;;;5071598;28;20072;-58
2023/09/15 10:11:39;;;;;;;19.63;2.90;;;22.20;68.50;;;;;;5072992;28;20040;-58
2023/09/15 10:14:06;;;;;;;11.77;2.63;;;22.20;67.80;;;;;;5055063;28;20047;-58
2023/09/15 10:16:32;;;;;;;10.35;2.88;;;22.20;66.90;;;;;;5072422;28;20051;-59
2023/09/15 10:18:58;;;;;;;11.10;2.42;;;22.20;66.00;;;;;;5072942;28;20040;-59
2023/09/15 10:21:25;;;;;;;11.00;2.83;;;22.20;65.50;;;;;;5054866;28;20041;-59
2023/09/15 10:23:59;;;;;;;10.30;2.63;;;22.10;65.30;;;;;;5073086;28;20048;-59
2023/09/15 10:26:25;;;;;;;7.95;2.28;;;22.20;65.20;;;;;;5073134;28;20041;-59
2023/09/15 10:28:51;;;;;;;12.88;2.67;;;22.20;65.30;;;;;;5070036;28;20044;-59
2023/09/15 10:31:18;;;;;;;16.85;3.13;;;22.20;65.40;;;;;;5071393;28;20041;-59
2023/09/15 10:33:43;;;;;;;16.92;3.45;;;22.20;65.50;;;;;;5054631;28;20041;-59
2023/09/15 10:36:11;;;;;;;10.60;2.92;;;22.20;65.60;;;;;;5070833;28;20051;-56
2023/09/15 10:38:37;;;;;;;8.75;2.75;;;22.20;65.80;;;;;;5071911;28;20098;-57
2023/09/15 10:41:06;;;;;;;10.52;3.30;;;22.20;65.90;;;;;;5072753;28;20048;-57
2023/09/15 10:43:32;;;;;;;12.32;2.60;;;22.20;66.60;;;;;;5054818;28;20056;-57
2023/09/15 10:45:58;;;;;;;13.05;2.58;;;22.20;66.10;;;;;;5072609;28;20388;-57
2023/09/15 10:48:35;;;;;;;12.00;2.72;;;22.30;66.30;;;;;;5072718;28;20135;-57
2023/09/15 10:51:07;;;;;;;12.88;2.90;;;22.30;66.30;;;;;;5071786;28;20044;-58
2023/09/15 10:53:56;;;;;;;15.85;2.85;;;22.20;66.30;;;;;;5072563;28;20036;-57
2023/09/15 10:56:22;;;;;;;17.60;2.92;;;22.30;66.40;;;;;;5072498;28;20046;-57
2023/09/15 10:58:48;;;;;;;12.88;2.83;;;22.20;66.40;;;;;;5070834;28;20040;-57
2023/09/15 11:01:17;;;;;;;14.23;2.75;;;22.20;66.40;;;;;;5071163;28;20048;-57
2023/09/15 11:03:42;;;;;;;17.48;3.38;;;22.20;66.50;;;;;;5071791;28;20979;-57
2023/09/15 11:06:13;;;;;;;18.25;3.53;;;22.20;66.60;;;;;;5072470;28;20491;-57
2023/09/15 11:08:39;;;;;;;19.30;3.25;;;22.20;66.70;;;;;;5071312;28;20060;-58
2023/09/15 11:11:07;;;;;;;22.90;3.53;;;22.20;66.70;;;;;;5071809;28;20040;-59
2023/09/15 11:13:36;;;;;;;17.00;2.75;;;22.20;66.70;;;;;;5072625;28;20062;-57
2023/09/15 11:16:01;;;;;;;15.30;3.22;;;22.20;66.70;;;;;;5072501;28;20063;-57
2023/09/15 11:18:27;;;;;;;15.40;3.22;;;22.10;66.70;;;;;;5083062;28;20497;-61
2023/09/15 11:20:54;;;;;;;13.43;2.90;;;22.10;66.70;;;;;;5086891;28;20060;-60
2023/09/15 11:23:23;;;;;;;22.67;3.10;;;22.10;66.80;;;;;;5088765;28;20044;-60
2023/09/15 11:26:01;;;;;;;23.52;3.25;;;22.10;66.80;;;;;;5087027;28;20496;-61
2023/09/15 11:28:33;;;;;;;;;;;22.10;66.90;;;;;;5087275;28;20047;-62
2023/09/15 11:30:59;;;;;;;12.10;2.55;;;22.10;66.90;;;;;;5073456;28;20406;-61
2023/09/15 11:33:25;;;;;;;17.58;2.50;;;22.20;66.90;;;;;;5069814;28;20049;-61
2023/09/15 11:35:51;;;;;;;14.25;2.33;;;22.30;66.90;;;;;;5053639;28;20048;-62
2023/09/15 11:38:17;;;;;;;13.02;2.50;;;22.30;66.90;;;;;;5075045;28;20052;-60
2023/09/15 11:40:49;;;;;;;10.60;2.58;;;22.30;66.60;;;;;;5073637;28;20072;-60
2023/09/15 11:43:15;;;;;;;13.80;2.70;;;22.30;66.30;;;;;;5076099;28;20055;-64
2023/09/15 11:45:41;;;;;;;13.18;2.63;;;22.30;66.30;;;;;;5074036;28;20040;-64
2023/09/15 11:48:06;;;;;;;8.85;2.20;;;22.30;66.30;;;;;;5074360;28;20151;-65
2023/09/15 11:50:32;;;;;;;15.77;2.60;;;22.30;66.10;;;;;;5075990;28;20123;-64
2023/09/15 11:52:58;;;;;;;10.02;2.50;;;22.30;65.80;;;;;;5093683;28;20151;-64
2023/09/15 11:55:24;;;;;;;8.23;2.28;;;22.30;65.60;;;;;;5067860;28;20072;-59
2023/09/15 11:57:53;;;;;;;10.68;2.28;;;22.20;65.40;;;;;;5094478;28;20133;-59
2023/09/15 12:00:20;;;;;;;10.93;2.35;;;22.20;65.20;;;;;;5084246;28;20055;-59
2023/09/15 12:02:46;;;;;;;11.90;2.70;;;22.20;65.10;;;;;;5085671;28;20043;-58
2023/09/15 12:05:16;;;;;;;10.88;2.42;;;22.10;64.90;;;;;;5095842;28;20036;-59
2023/09/15 12:07:43;;;;;;;11.35;2.30;;;22.10;64.70;;;;;;5060834;28;20040;-63
2023/09/15 12:10:11;;;;;;;9.82;2.38;;;22.10;64.60;;;;;;5094599;28;20065;-62
2023/09/15 12:12:36;;;;;;;7.68;2.00;;;22.10;64.50;;;;;;5094255;28;20036;-57
2023/09/15 12:15:04;;;;;;;7.65;2.10;;;22.10;64.50;;;;;;5094968;28;20147;-57
2023/09/15 12:17:30;;;;;;;6.43;2.00;;;22.10;64.50;;;;;;5094432;28;20115;-58
2023/09/15 12:20:04;;;;;;;6.32;2.30;;;22.10;64.60;;;;;;5094369;28;20395;-60
2023/09/15 12:22:33;;;;;;;9.65;2.42;;;22.00;64.50;;;;;;5094914;28;20399;-64
2023/09/15 12:24:59;;;;;;;7.90;2.10;;;22.00;64.60;;;;;;5091090;28;20075;-59
2023/09/15 12:27:26;;;;;;;8.68;2.60;;;22.00;64.60;;;;;;5094738;28;20396;-58
2023/09/15 12:29:53;;;;;;;6.90;2.00;;;22.00;64.70;;;;;;5084853;28;20083;-58
2023/09/15 12:32:26;;;;;;;7.47;2.50;;;22.00;64.90;;;;;;5084753;28;20475;-58
2023/09/15 12:34:53;;;;;;;7.22;2.25;;;22.00;65.10;;;;;;5088525;28;20146;-58
2023/09/15 12:37:18;;;;;;;7.40;2.47;;;22.10;65.10;;;;;;5083279;28;20055;-61
2023/09/15 12:39:44;;;;;;;7.97;2.40;;;22.00;65.10;;;;;;5092285;28;20048;-61
2023/09/15 12:42:09;;;;;;;9.40;2.20;;;22.10;65.00;;;;;;5093394;28;20479;-61
2023/09/15 12:44:35;;;;;;;9.10;2.22;;;22.10;65.00;;;;;;5093106;28;20071;-62